CheckWX is a tool to help pilots better visualize weather data.  It is not intended as a substitute for an official pre-flight weather briefing.

04:00:53 UTC

KGJT METAR
Grand Junction Regional Airport
Grand Junction, Colorado, USA
Current

8 mins ago

KGJT 230353Z AUTO 11009KT 10SM CLR 29/04 A3015 RMK AO2 SLP126 T02890044
Observed
Jul-23 @ 03:53 UTC
Wind
  • 110° at 9 KTS
Visibility
10 SM
Flight Rules
VFR
Cloud Levels
  • Clear skies
Temperature
29°C / 84°F
Dewpoint
C / 39°F
Humidity
20%
Altimeter
30.15" Hg
Pressure
1021.02 hPa
Previous

1 hour ago

KGJT 230253Z 16018G25KT 10SM CLR 31/06 A3011 RMK AO2 SLP113 T03110061 53010
Observed
Jul-23 @ 02:53 UTC
Wind
  • 160° at 18 KTS
  • Gusting to 25 KTS
Visibility
10 SM
Flight Rules
VFR
Cloud Levels
  • Clear skies
Temperature
31°C / 88°F
Dewpoint
C / 43°F
Humidity
21%
Altimeter
30.11" Hg
Pressure
1019.62 hPa
Previous

2 hours ago

KGJT 230153Z 12017G23KT 10SM CLR 34/05 A3009 RMK AO2 WSHFT 0102 SLP103 T03390050
Observed
Jul-23 @ 01:53 UTC
Wind
  • 120° at 17 KTS
  • Gusting to 23 KTS
Visibility
10 SM
Flight Rules
VFR
Cloud Levels
  • Clear skies
Temperature
34°C / 93°F
Dewpoint
C / 41°F
Humidity
16%
Altimeter
30.09" Hg
Pressure
1018.92 hPa